Brewington Woods, Indiana
Current Conditions -  °F | °C
As of 3:53 AM on Wednesday 22 Oct 2014 (Local Time) from KMIE Reporting Station
Overcast Overcast  
Wind Chill: 39°   Ceiling: 2200
Heat Index: 42°   Visibility: 10mi
Dew Point: 37°   Wind: 5mph
Humidity: 82%   Direction: 350°N
Pressure: 30.23"   Gusts: NA
Location:  40.2341°N, 85.4639°W
Report Text: KMIE 220753Z AUTO 35004KT 10SM OVC022 06/03 A3023 RMK AO2 SLP235 T00560028
Loading
Personal Weather Stations






























Interactive Weather Map
Tropical Storm Tracking
New forecast layout! Learn more

10-Day Weather Forecast

Advertisements
Track Severe Weather on mobile